Time;durP1;ratioP1;P1;durP2;ratioP2;P2;SDS_P1;SDS_P2;PMS_P1;PMS_P2;Temp;Humidity;BMP_temperature;BMP_pressure;BME280_temperature;BME280_humidity;BME280_pressure;Samples;Min_cycle;Max_cycle;Signal;HPM_P1;HPM_P2
2023/10/19 00:00:33;;;;;;;17.45;11.90;;;11.40;99.90;;;;;;4969231;28;20042;-73
2023/10/19 00:03:02;;;;;;;17.25;11.52;;;11.40;99.90;;;;;;4954989;28;20035;-73
2023/10/19 00:05:29;;;;;;;13.73;10.27;;;11.40;99.90;;;;;;4973536;28;20034;-73
2023/10/19 00:07:57;;;;;;;12.88;9.73;;;11.40;99.90;;;;;;4959222;28;20078;-73
2023/10/19 00:10:25;;;;;;;15.40;10.00;;;11.50;99.90;;;;;;4958085;28;20019;-72
2023/10/19 00:12:59;;;;;;;12.20;9.32;;;11.50;99.90;;;;;;4969427;28;20027;-73
2023/10/19 00:15:30;;;;;;;15.95;9.98;;;11.50;99.90;;;;;;4966599;28;20478;-73
2023/10/19 00:17:56;;;;;;;13.45;9.05;;;11.50;99.90;;;;;;4972651;28;20085;-73
2023/10/19 00:22:53;;;;;;;14.70;10.00;;;11.50;99.90;;;;;;4971776;28;20339;-74
2023/10/19 00:25:23;;;;;;;15.60;9.90;;;11.60;99.90;;;;;;4970381;28;20063;-74
2023/10/19 00:27:48;;;;;;;14.52;10.35;;;11.60;99.90;;;;;;4970326;28;20023;-74
2023/10/19 00:30:18;;;;;;;15.57;9.82;;;11.60;99.90;;;;;;4971546;28;20053;-73
2023/10/19 00:32:45;;;;;;;14.55;10.27;;;11.60;99.90;;;;;;4972097;28;20394;-73
2023/10/19 00:35:27;;;;;;;12.65;8.38;;;11.60;99.90;;;;;;4973014;28;20054;-73
2023/10/19 00:37:56;;;;;;;12.60;8.18;;;11.60;99.90;;;;;;4966330;28;20081;-74
2023/10/19 00:40:34;;;;;;;10.10;6.22;;;11.70;99.90;;;;;;4972405;28;20031;-74
2023/10/19 00:43:08;;;;;;;9.75;5.55;;;11.70;99.90;;;;;;4968616;28;20037;-74
2023/10/19 00:45:39;;;;;;;6.55;4.22;;;11.70;99.90;;;;;;4968827;28;20030;-74
2023/10/19 00:48:11;;;;;;;9.07;3.65;;;11.80;99.90;;;;;;4972379;28;20034;-73
2023/10/19 00:50:37;;;;;;;6.75;3.85;;;11.90;99.90;;;;;;4973763;28;20030;-73
2023/10/19 00:53:08;;;;;;;6.63;3.92;;;12.00;99.90;;;;;;4967284;28;20113;-74
2023/10/19 00:55:34;;;;;;;15.70;11.02;;;12.00;99.90;;;;;;4970337;28;20030;-74
2023/10/19 00:58:09;;;;;;;18.38;11.98;;;12.00;99.90;;;;;;4971244;28;20102;-73
2023/10/19 01:00:43;;;;;;;19.13;12.90;;;12.00;99.90;;;;;;4970434;28;20039;-73
2023/10/19 01:03:10;;;;;;;21.95;14.80;;;12.00;99.90;;;;;;4964817;28;20038;-73
2023/10/19 01:05:36;;;;;;;22.60;14.45;;;11.90;99.90;;;;;;4954857;28;20402;-73
2023/10/19 01:08:14;;;;;;;23.27;14.40;;;11.90;99.90;;;;;;4955558;28;20039;-73
2023/10/19 01:10:40;;;;;;;20.52;13.77;;;11.70;99.90;;;;;;4952604;28;20349;-73
2023/10/19 01:13:05;;;;;;;22.27;15.02;;;11.80;99.90;;;;;;4969136;28;20023;-73
2023/10/19 01:15:37;;;;;;;20.83;14.07;;;11.80;99.90;;;;;;4968862;28;20124;-73
2023/10/19 01:18:02;;;;;;;22.98;16.40;;;11.80;99.90;;;;;;4972507;28;20195;-73
2023/10/19 01:28:28;;;;;;;10.60;6.80;;;11.80;99.90;;;;;;4969121;28;20027;-73
2023/10/19 01:30:54;;;;;;;7.47;6.13;;;11.90;99.90;;;;;;4969635;28;20026;-73
2023/10/19 01:33:24;;;;;;;8.48;4.72;;;11.90;99.90;;;;;;4969290;28;20031;-73
2023/10/19 01:38:34;;;;;;;8.00;3.88;;;12.00;99.90;;;;;;4969901;28;20038;-74
2023/10/19 01:41:01;;;;;;;6.53;3.45;;;12.10;99.90;;;;;;4968216;28;20470;-74
2023/10/19 01:43:30;;;;;;;5.85;3.40;;;12.20;99.90;;;;;;4965057;28;20086;-73
2023/10/19 01:45:57;;;;;;;7.15;3.65;;;12.20;99.90;;;;;;4970953;28;20019;-73
2023/10/19 01:48:33;;;;;;;8.55;5.15;;;12.30;99.90;;;;;;4968652;28;20018;-75
2023/10/19 01:51:06;;;;;;;15.93;9.07;;;12.30;99.90;;;;;;4969621;28;20066;-74
2023/10/19 01:53:34;;;;;;;12.18;6.93;;;12.30;99.90;;;;;;4970019;28;20030;-75
2023/10/19 01:55:59;;;;;;;9.55;5.82;;;12.40;99.90;;;;;;4965461;28;20034;-73
2023/10/19 01:58:26;;;;;;;8.85;4.70;;;12.40;99.90;;;;;;4968843;28;20026;-73
2023/10/19 02:01:00;;;;;;;14.00;6.70;;;12.40;99.90;;;;;;4973550;28;20030;-73
2023/10/19 02:03:28;;;;;;;17.30;10.70;;;12.40;99.90;;;;;;4970481;28;20023;-74
2023/10/19 02:05:58;;;;;;;20.23;13.30;;;12.40;99.90;;;;;;4971602;28;20038;-73
2023/10/19 02:08:26;;;;;;;21.70;13.45;;;12.30;99.90;;;;;;4968295;28;20058;-73
2023/10/19 02:10:53;;;;;;;24.48;16.42;;;12.20;99.90;;;;;;4973976;28;20066;-73
2023/10/19 02:13:21;;;;;;;21.35;14.68;;;12.20;99.90;;;;;;4972176;28;20039;-74
2023/10/19 02:15:48;;;;;;;21.50;14.70;;;12.10;99.90;;;;;;4973981;28;20027;-73
2023/10/19 02:18:14;;;;;;;21.75;15.27;;;12.10;99.90;;;;;;4972012;28;20027;-73
2023/10/19 02:20:41;;;;;;;21.95;14.95;;;11.90;99.90;;;;;;4959323;28;20038;-73
2023/10/19 02:23:11;;;;;;;19.50;13.80;;;11.90;99.90;;;;;;4955384;28;20035;-73
2023/10/19 02:25:37;;;;;;;18.60;12.52;;;11.90;99.90;;;;;;4973256;28;20085;-73
2023/10/19 02:28:09;;;;;;;17.73;12.98;;;11.90;99.90;;;;;;4975145;28;20039;-73
2023/10/19 02:30:35;;;;;;;19.48;13.10;;;11.90;99.90;;;;;;4956323;28;20018;-73
2023/10/19 02:33:02;;;;;;;18.75;12.55;;;11.90;99.90;;;;;;4969423;28;20103;-74
2023/10/19 02:35:28;;;;;;;16.38;11.90;;;11.90;99.90;;;;;;4955209;28;20033;-72
2023/10/19 02:37:54;;;;;;;16.88;12.05;;;11.90;99.90;;;;;;4971119;28;20098;-72
2023/10/19 02:40:22;;;;;;;19.20;13.20;;;11.90;99.90;;;;;;4972424;28;20039;-73
2023/10/19 02:42:48;;;;;;;17.92;12.98;;;11.90;99.90;;;;;;4955337;28;20026;-73
2023/10/19 02:45:18;;;;;;;16.77;12.40;;;11.90;99.90;;;;;;4956459;28;20022;-73
2023/10/19 02:47:44;;;;;;;18.67;12.77;;;11.80;99.90;;;;;;4975270;28;20084;-73
2023/10/19 02:50:15;;;;;;;18.65;12.98;;;11.90;99.90;;;;;;4965806;28;20509;-73
2023/10/19 02:52:41;;;;;;;17.60;12.23;;;11.80;99.90;;;;;;4972765;28;20512;-73
2023/10/19 02:55:09;;;;;;;17.00;11.80;;;11.90;99.90;;;;;;4972553;28;20393;-73
2023/10/19 02:57:34;;;;;;;18.98;9.40;;;11.80;99.90;;;;;;4953789;28;20027;-73
2023/10/19 03:00:01;;;;;;;15.38;9.60;;;11.80;99.90;;;;;;4958008;28;20489;-73
2023/10/19 03:02:26;;;;;;;14.88;8.32;;;11.90;99.90;;;;;;4962084;28;20105;-73
2023/10/19 03:04:53;;;;;;;12.13;7.22;;;11.80;99.90;;;;;;4956895;28;20110;-73
2023/10/19 03:07:19;;;;;;;8.82;6.30;;;11.90;99.90;;;;;;4972954;28;20027;-73
2023/10/19 03:09:54;;;;;;;10.05;6.72;;;11.90;99.90;;;;;;4957931;28;20126;-73
2023/10/19 03:12:25;;;;;;;14.27;8.23;;;11.90;99.90;;;;;;4970205;28;20478;-73
2023/10/19 03:14:50;;;;;;;11.88;8.77;;;11.90;99.90;;;;;;4957334;28;20032;-73
2023/10/19 03:17:16;;;;;;;16.38;9.38;;;11.90;99.90;;;;;;4973954;28;20026;-73
2023/10/19 03:19:42;;;;;;;13.52;9.63;;;11.80;99.90;;;;;;4973866;28;20037;-73
2023/10/19 03:22:08;;;;;;;18.17;10.30;;;11.70;99.90;;;;;;4957303;28;20023;-73
2023/10/19 03:24:43;;;;;;;15.95;11.75;;;11.70;99.90;;;;;;4972360;28;20022;-73
2023/10/19 03:27:23;;;;;;;18.33;12.23;;;11.70;99.90;;;;;;4972450;28;20030;-73
2023/10/19 03:29:54;;;;;;;18.67;12.80;;;11.70;99.90;;;;;;4967600;28;20015;-73
2023/10/19 03:32:26;;;;;;;17.90;13.23;;;11.70;99.90;;;;;;4973935;28;20090;-73
2023/10/19 03:34:55;;;;;;;20.45;15.40;;;11.60;99.90;;;;;;4949596;28;20031;-74
2023/10/19 03:37:30;;;;;;;21.25;15.18;;;11.50;99.90;;;;;;4974119;28;20121;-74
2023/10/19 03:39:56;;;;;;;24.67;17.35;;;11.50;99.90;;;;;;4971029;28;20102;-74
2023/10/19 03:42:25;;;;;;;28.98;17.52;;;11.60;99.90;;;;;;4966950;28;20060;-73
2023/10/19 03:44:54;;;;;;;24.80;16.80;;;11.50;99.90;;;;;;4968324;28;20485;-73
2023/10/19 03:47:25;;;;;;;26.45;17.10;;;11.50;99.90;;;;;;4967351;28;20023;-73
2023/10/19 03:49:51;;;;;;;27.02;18.45;;;11.50;99.90;;;;;;4955819;28;20027;-74
2023/10/19 03:54:43;;;;;;;29.23;19.52;;;11.50;99.90;;;;;;4990673;28;20040;-73
2023/10/19 03:57:19;;;;;;;26.13;18.38;;;11.50;99.90;;;;;;4977123;28;20383;-73
2023/10/19 03:59:46;;;;;;;23.95;18.70;;;11.40;99.90;;;;;;4994268;28;20039;-74
2023/10/19 04:02:23;;;;;;;27.00;18.67;;;11.40;99.90;;;;;;4977159;28;20100;-73
2023/10/19 04:04:48;;;;;;;30.20;20.90;;;11.40;99.90;;;;;;4972471;28;20014;-73
2023/10/19 04:07:21;;;;;;;27.27;19.50;;;11.40;99.90;;;;;;4973807;28;20640;-74
2023/10/19 04:12:46;;;;;;;27.25;17.67;;;11.40;99.90;;;;;;4933444;28;20047;-73
2023/10/19 04:15:17;;;;;;;28.15;17.63;;;11.30;99.90;;;;;;4969215;28;20030;-73
2023/10/19 04:17:47;;;;;;;26.77;17.45;;;11.30;99.90;;;;;;4972339;28;20457;-73
2023/10/19 04:22:47;;;;;;;24.25;17.83;;;11.30;99.90;;;;;;4973987;28;20025;-73
2023/10/19 04:25:15;;;;;;;26.58;18.90;;;11.30;99.90;;;;;;4969581;28;20054;-72
2023/10/19 04:27:42;;;;;;;24.90;17.10;;;11.30;99.90;;;;;;4972845;28;20050;-73
2023/10/19 04:30:15;;;;;;;27.27;17.85;;;11.30;99.90;;;;;;4970552;28;20106;-74
2023/10/19 04:32:41;;;;;;;26.73;17.17;;;11.20;99.90;;;;;;4966728;28;20077;-73
2023/10/19 04:35:09;;;;;;;25.33;17.88;;;11.20;99.90;;;;;;4955152;28;20443;-73
2023/10/19 04:37:35;;;;;;;27.92;17.98;;;11.20;99.90;;;;;;4976642;28;20018;-74
2023/10/19 04:40:00;;;;;;;25.33;17.55;;;11.20;99.90;;;;;;4954102;28;20545;-73
2023/10/19 04:42:27;;;;;;;29.08;19.77;;;11.20;99.90;;;;;;4956424;28;20429;-74
2023/10/19 04:44:54;;;;;;;26.67;18.83;;;11.10;99.90;;;;;;4969316;28;20027;-73
2023/10/19 04:47:20;;;;;;;30.80;18.40;;;11.10;99.90;;;;;;4971880;28;20054;-74
2023/10/19 04:49:45;;;;;;;29.38;19.65;;;11.10;99.90;;;;;;4969964;28;20031;-74
2023/10/19 04:52:11;;;;;;;27.45;18.67;;;11.10;99.90;;;;;;4973146;28;20031;-74
2023/10/19 04:54:37;;;;;;;29.70;19.42;;;11.10;99.90;;;;;;4954782;28;20395;-73
2023/10/19 04:57:03;;;;;;;26.80;17.50;;;11.10;99.90;;;;;;4971963;28;20035;-73
2023/10/19 04:59:32;;;;;;;25.73;17.73;;;11.10;99.90;;;;;;4972231;28;20508;-74
2023/10/19 05:02:00;;;;;;;24.45;17.42;;;11.10;99.90;;;;;;4970821;28;20437;-73
2023/10/19 05:04:29;;;;;;;23.92;16.00;;;11.10;99.90;;;;;;4973216;28;20054;-73
2023/10/19 05:06:55;;;;;;;23.95;15.85;;;11.10;99.90;;;;;;4971421;28;20509;-73
2023/10/19 05:09:21;;;;;;;26.88;17.25;;;11.10;99.90;;;;;;4970247;28;20030;-73
2023/10/19 05:11:46;;;;;;;26.90;17.20;;;11.10;99.90;;;;;;4962521;28;20031;-73
2023/10/19 05:14:15;;;;;;;22.42;15.32;;;11.20;99.90;;;;;;4978096;28;20043;-73
2023/10/19 05:16:40;;;;;;;21.95;15.98;;;11.20;99.90;;;;;;4959156;28;20035;-73
2023/10/19 05:19:06;;;;;;;25.10;16.48;;;11.30;99.90;;;;;;4974346;28;20161;-74
2023/10/19 05:21:33;;;;;;;24.85;15.27;;;11.30;99.90;;;;;;4960374;28;20034;-74
2023/10/19 05:24:02;;;;;;;27.00;16.45;;;11.30;99.90;;;;;;4974223;28;20117;-74
2023/10/19 05:26:28;;;;;;;23.23;14.52;;;11.30;99.90;;;;;;4974634;28;20046;-73
2023/10/19 05:28:54;;;;;;;24.38;14.65;;;11.30;99.90;;;;;;4967795;28;20027;-73
2023/10/19 05:31:20;;;;;;;24.90;14.30;;;11.30;99.90;;;;;;4972049;28;20023;-73
2023/10/19 05:33:48;;;;;;;21.13;13.73;;;11.30;99.90;;;;;;4982224;28;20019;-73
2023/10/19 05:36:14;;;;;;;22.48;14.07;;;11.30;99.90;;;;;;4975283;28;20497;-74
2023/10/19 05:38:40;;;;;;;21.08;13.25;;;11.30;99.90;;;;;;4967084;28;20090;-74
2023/10/19 05:41:07;;;;;;;16.67;11.35;;;11.30;99.90;;;;;;4957452;28;20031;-73
2023/10/19 05:43:34;;;;;;;18.50;11.60;;;11.30;99.90;;;;;;4975758;28;20057;-74
2023/10/19 05:46:00;;;;;;;18.33;12.85;;;11.30;99.90;;;;;;4976951;28;20019;-73
2023/10/19 05:48:26;;;;;;;21.23;13.15;;;11.40;99.90;;;;;;4973027;28;20348;-73
2023/10/19 05:50:51;;;;;;;17.83;11.70;;;11.40;99.90;;;;;;4978378;28;20022;-74
2023/10/19 05:53:18;;;;;;;21.15;12.18;;;11.40;99.90;;;;;;4979393;28;20482;-74
2023/10/19 05:55:44;;;;;;;19.00;12.95;;;11.40;99.90;;;;;;4958490;28;20102;-74
2023/10/19 05:58:10;;;;;;;18.73;11.63;;;11.40;99.90;;;;;;4975376;28;20041;-74
2023/10/19 06:00:36;;;;;;;24.25;14.77;;;11.40;99.90;;;;;;4959221;28;20438;-74
2023/10/19 06:03:02;;;;;;;26.58;15.43;;;11.40;99.90;;;;;;4977980;28;20034;-73
2023/10/19 06:05:30;;;;;;;22.70;13.68;;;11.50;99.90;;;;;;4961695;28;20035;-73
2023/10/19 06:07:55;;;;;;;26.23;14.52;;;11.50;99.90;;;;;;4989498;28;20125;-73
2023/10/19 06:10:22;;;;;;;24.77;14.25;;;11.50;99.90;;;;;;4975715;28;20082;-73
2023/10/19 06:12:49;;;;;;;26.70;15.10;;;11.50;99.90;;;;;;4973924;28;20026;-73
2023/10/19 06:15:16;;;;;;;19.35;12.55;;;11.50;99.90;;;;;;4974261;28;20034;-73
2023/10/19 06:17:43;;;;;;;16.92;12.13;;;11.60;99.90;;;;;;4972086;28;20041;-73
2023/10/19 06:20:26;;;;;;;19.38;13.25;;;11.60;99.90;;;;;;4961840;28;20061;-73
2023/10/19 06:22:59;;;;;;;17.50;12.32;;;11.60;99.90;;;;;;4972749;28;20050;-73
2023/10/19 06:25:25;;;;;;;18.95;13.00;;;11.60;99.90;;;;;;4972045;28;20022;-74
2023/10/19 06:27:52;;;;;;;21.00;13.18;;;11.60;99.90;;;;;;4970837;28;20027;-73
2023/10/19 06:30:19;;;;;;;28.02;17.33;;;11.60;99.90;;;;;;4972513;28;20063;-73
2023/10/19 06:32:50;;;;;;;32.47;19.80;;;11.60;99.90;;;;;;4969720;28;20059;-73
2023/10/19 06:35:16;;;;;;;32.38;19.58;;;11.70;99.90;;;;;;4965813;28;20030;-72
2023/10/19 06:37:43;;;;;;;30.80;18.27;;;11.70;99.90;;;;;;4971588;28;20057;-72
2023/10/19 06:40:11;;;;;;;31.13;17.17;;;11.80;99.90;;;;;;4969269;28;20031;-72
2023/10/19 06:42:37;;;;;;;28.98;19.13;;;11.80;99.90;;;;;;4970658;28;20478;-72
2023/10/19 06:45:03;;;;;;;31.80;16.92;;;11.80;99.90;;;;;;4973015;28;20063;-73
2023/10/19 06:47:29;;;;;;;29.65;16.58;;;11.80;99.90;;;;;;4955969;28;20147;-72
2023/10/19 06:49:55;;;;;;;25.40;15.07;;;11.80;99.90;;;;;;4967515;28;20461;-73
2023/10/19 06:52:21;;;;;;;26.52;14.90;;;11.90;99.90;;;;;;4960643;28;20035;-72
2023/10/19 06:54:47;;;;;;;22.08;14.73;;;11.80;99.90;;;;;;4969133;28;20029;-73
2023/10/19 06:57:13;;;;;;;27.35;15.65;;;11.90;99.90;;;;;;4977698;28;20421;-72
2023/10/19 06:59:38;;;;;;;29.90;16.92;;;11.90;99.90;;;;;;4972457;28;20089;-72
2023/10/19 07:02:07;;;;;;;27.77;15.15;;;11.90;99.90;;;;;;4966133;28;20452;-72
2023/10/19 07:04:33;;;;;;;23.58;12.60;;;11.90;99.90;;;;;;4966952;28;20037;-73
2023/10/19 07:07:00;;;;;;;20.70;10.90;;;11.90;99.90;;;;;;4969672;28;20031;-73
2023/10/19 07:09:26;;;;;;;15.07;9.13;;;12.00;99.90;;;;;;4965305;28;20029;-73
2023/10/19 07:11:56;;;;;;;12.63;6.53;;;12.00;99.90;;;;;;4974253;28;20046;-73
2023/10/19 07:14:22;;;;;;;11.75;6.30;;;12.10;99.90;;;;;;4970744;28;20027;-73
2023/10/19 07:16:51;;;;;;;8.15;4.95;;;12.10;99.90;;;;;;4969883;28;20608;-74
2023/10/19 07:19:17;;;;;;;7.72;4.70;;;12.20;99.90;;;;;;4970931;28;20765;-73
2023/10/19 07:21:48;;;;;;;7.25;4.18;;;12.30;99.90;;;;;;4967039;28;20173;-73
2023/10/19 07:24:14;;;;;;;8.40;4.53;;;12.40;99.90;;;;;;4969398;28;20034;-73
2023/10/19 07:29:24;;;;;;;;;;;12.40;99.90;;;;;;4974826;28;20089;-72
2023/10/19 07:31:52;;;;;;;9.60;3.78;;;12.50;99.90;;;;;;4973457;28;19909;-73
2023/10/19 07:34:18;;;;;;;10.65;4.45;;;12.60;99.90;;;;;;4970563;28;20146;-74
2023/10/19 07:36:44;;;;;;;13.85;8.32;;;12.60;99.90;;;;;;4968419;28;20042;-73
2023/10/19 07:39:14;;;;;;;13.07;8.20;;;12.70;99.90;;;;;;4974274;28;20031;-73
2023/10/19 07:41:40;;;;;;;14.60;9.60;;;12.60;99.90;;;;;;4971255;28;20026;-72
2023/10/19 07:44:06;;;;;;;17.27;10.65;;;12.70;99.90;;;;;;4961709;28;20475;-72
2023/10/19 07:46:31;;;;;;;20.85;12.20;;;12.70;99.90;;;;;;4974669;28;20023;-72
2023/10/19 07:48:59;;;;;;;22.50;12.25;;;12.60;99.90;;;;;;4971616;28;20022;-72
2023/10/19 07:51:25;;;;;;;20.60;12.73;;;12.70;99.90;;;;;;4971303;28;20077;-72
2023/10/19 07:53:51;;;;;;;19.83;12.90;;;12.70;99.90;;;;;;4970139;28;20030;-72
2023/10/19 07:56:17;;;;;;;19.23;12.20;;;12.70;99.90;;;;;;4953876;28;20122;-72
2023/10/19 07:58:43;;;;;;;17.15;10.23;;;12.70;99.90;;;;;;4971550;28;20143;-72
2023/10/19 08:01:08;;;;;;;18.08;10.45;;;12.70;99.90;;;;;;4969190;28;20035;-71
2023/10/19 08:03:35;;;;;;;17.08;9.63;;;12.80;99.90;;;;;;4971125;28;20104;-72
2023/10/19 08:06:01;;;;;;;17.88;9.27;;;12.80;99.90;;;;;;4971020;28;20019;-73
2023/10/19 08:08:33;;;;;;;18.17;10.50;;;12.80;99.90;;;;;;4950040;28;20019;-72
2023/10/19 08:10:59;;;;;;;15.68;8.80;;;12.80;99.90;;;;;;4970112;28;20030;-71
2023/10/19 08:13:26;;;;;;;11.43;8.32;;;12.90;99.90;;;;;;4968652;28;20094;-73
2023/10/19 08:15:52;;;;;;;12.15;8.50;;;12.80;99.90;;;;;;4965667;28;20106;-73
2023/10/19 08:18:18;;;;;;;13.70;8.20;;;12.90;99.90;;;;;;4965871;28;20102;-72
2023/10/19 08:20:48;;;;;;;18.17;8.25;;;12.90;99.90;;;;;;4964028;28;20035;-72
2023/10/19 08:23:16;;;;;;;15.55;8.10;;;12.90;99.90;;;;;;4955001;28;20043;-73
2023/10/19 08:25:44;;;;;;;12.85;9.40;;;13.00;99.90;;;;;;4963337;28;20050;-72
2023/10/19 08:28:10;;;;;;;12.18;9.10;;;13.00;99.90;;;;;;4953078;28;20037;-72
2023/10/19 08:30:37;;;;;;;16.77;9.10;;;13.10;99.90;;;;;;4947854;28;20031;-73
2023/10/19 08:33:03;;;;;;;17.08;10.50;;;13.10;99.90;;;;;;4954481;28;20395;-73
2023/10/19 08:35:30;;;;;;;13.57;8.65;;;13.10;99.90;;;;;;4968512;28;20529;-73
2023/10/19 08:37:59;;;;;;;13.73;9.07;;;13.20;99.90;;;;;;4964275;28;20026;-73
2023/10/19 08:40:28;;;;;;;14.38;9.20;;;13.30;99.90;;;;;;4950531;28;20638;-72
2023/10/19 08:42:54;;;;;;;17.02;8.85;;;13.30;99.90;;;;;;4964290;28;20030;-72
2023/10/19 08:45:23;;;;;;;11.73;8.18;;;13.40;99.90;;;;;;4955330;28;20041;-72
2023/10/19 08:47:50;;;;;;;13.35;9.43;;;13.40;99.90;;;;;;4951357;28;20474;-73
2023/10/19 08:50:16;;;;;;;13.88;8.55;;;13.50;99.90;;;;;;4970939;28;20019;-73
2023/10/19 08:52:42;;;;;;;13.60;8.13;;;13.50;99.90;;;;;;4965251;28;20042;-73
2023/10/19 08:55:09;;;;;;;10.73;7.60;;;13.60;99.90;;;;;;4966009;28;20035;-73
2023/10/19 08:57:37;;;;;;;17.42;9.02;;;13.60;99.90;;;;;;4967401;28;20046;-74
2023/10/19 09:00:06;;;;;;;13.48;8.55;;;13.70;99.90;;;;;;4962783;28;20031;-73
2023/10/19 09:02:33;;;;;;;12.63;8.75;;;13.70;99.90;;;;;;4957635;28;20031;-73
2023/10/19 09:04:59;;;;;;;16.35;8.63;;;13.80;99.90;;;;;;4974644;28;20018;-74
2023/10/19 09:07:30;;;;;;;15.27;8.77;;;13.80;99.90;;;;;;4968470;28;20026;-74
2023/10/19 09:09:57;;;;;;;12.13;8.30;;;13.90;99.90;;;;;;4974086;28;20034;-73
2023/10/19 09:12:23;;;;;;;12.02;8.00;;;13.90;99.90;;;;;;4974458;28;20108;-72
2023/10/19 09:14:49;;;;;;;13.55;8.38;;;14.00;99.90;;;;;;4967491;28;20533;-72
2023/10/19 09:17:17;;;;;;;13.52;8.82;;;14.00;99.90;;;;;;4969782;28;20034;-72
2023/10/19 09:19:48;;;;;;;15.43;8.88;;;14.00;99.90;;;;;;4955954;28;20042;-72
2023/10/19 09:22:22;;;;;;;14.82;8.15;;;14.10;99.90;;;;;;4962502;28;20042;-73
2023/10/19 09:24:49;;;;;;;;;;;14.10;99.90;;;;;;4956685;28;20023;-72
2023/10/19 09:27:17;;;;;;;11.30;7.40;;;14.10;99.90;;;;;;4967056;28;19911;-73
2023/10/19 09:29:43;;;;;;;12.60;8.65;;;14.20;99.90;;;;;;4955935;28;20027;-74
2023/10/19 09:32:09;;;;;;;13.88;8.68;;;14.30;99.90;;;;;;4962837;28;20039;-74
2023/10/19 09:34:35;;;;;;;14.70;8.57;;;14.30;99.90;;;;;;4971634;28;20070;-72
2023/10/19 09:37:03;;;;;;;13.30;8.27;;;14.30;99.90;;;;;;4972580;28;20045;-74
2023/10/19 09:39:34;;;;;;;12.00;8.10;;;14.30;99.90;;;;;;4976593;28;20034;-73
2023/10/19 09:42:16;;;;;;;15.45;8.18;;;14.40;99.90;;;;;;4965614;28;20085;-73
2023/10/19 09:44:48;;;;;;;17.75;9.10;;;14.40;99.90;;;;;;4948112;28;20154;-74
2023/10/19 09:47:30;;;;;;;13.30;9.60;;;14.40;99.90;;;;;;4963626;28;20023;-73
2023/10/19 09:49:57;;;;;;;12.98;9.00;;;14.40;99.90;;;;;;4966187;28;20026;-74
2023/10/19 09:52:24;;;;;;;11.93;8.90;;;14.50;99.90;;;;;;4954120;28;20636;-74
2023/10/19 09:55:22;;;;;;;13.43;9.23;;;14.50;99.90;;;;;;4950897;28;20062;-73
2023/10/19 09:57:53;;;;;;;18.73;9.95;;;14.50;99.90;;;;;;4963448;28;20046;-72
2023/10/19 10:00:26;;;;;;;11.50;7.95;;;14.50;99.90;;;;;;4967177;28;20078;-72
2023/10/19 10:02:52;;;;;;;14.40;9.53;;;14.50;99.90;;;;;;4963679;28;20022;-71
2023/10/19 10:05:42;;;;;;;17.73;9.40;;;14.50;99.90;;;;;;4968253;28;20264;-73
2023/10/19 10:08:17;;;;;;;11.40;8.90;;;14.60;99.90;;;;;;4956340;28;20039;-74
2023/10/19 10:10:47;;;;;;;12.25;9.10;;;14.60;99.90;;;;;;4958722;28;20023;-76
2023/10/19 10:13:24;;;;;;;16.25;9.50;;;14.70;99.90;;;;;;4961056;28;20023;-75
2023/10/19 10:15:54;;;;;;;10.82;9.10;;;14.80;99.90;;;;;;4964894;28;20093;-74
2023/10/19 10:18:20;;;;;;;18.88;12.30;;;14.80;99.90;;;;;;4965467;28;20413;-74
2023/10/19 10:20:47;;;;;;;16.08;11.32;;;14.80;99.90;;;;;;4966734;28;20442;-75
2023/10/19 10:23:19;;;;;;;15.60;11.98;;;14.90;99.90;;;;;;4964321;28;20038;-75
2023/10/19 10:25:49;;;;;;;14.52;9.88;;;14.90;99.90;;;;;;4965234;28;20030;-74
2023/10/19 10:28:15;;;;;;;13.45;9.45;;;15.00;99.90;;;;;;4961719;28;20034;-74
2023/10/19 10:31:32;;;;;;;12.82;9.32;;;15.00;99.90;;;;;;4970276;28;20034;-74
2023/10/19 10:33:58;;;;;;;15.45;10.70;;;15.10;99.90;;;;;;4924684;28;20043;-74
2023/10/19 10:36:26;;;;;;;16.48;11.18;;;15.10;99.90;;;;;;4968795;28;20033;-74
2023/10/19 10:38:52;;;;;;;15.45;10.95;;;15.20;99.90;;;;;;4966205;28;20122;-74
2023/10/19 10:41:27;;;;;;;16.25;10.68;;;15.20;99.90;;;;;;4966440;28;20078;-74
2023/10/19 10:43:58;;;;;;;16.50;10.13;;;15.30;99.90;;;;;;4965052;28;20027;-74
2023/10/19 10:46:25;;;;;;;14.85;10.05;;;15.30;99.90;;;;;;4968595;28;20127;-74
2023/10/19 10:48:51;;;;;;;17.38;10.73;;;15.30;99.90;;;;;;4952266;28;20023;-74
2023/10/19 10:51:18;;;;;;;15.50;9.35;;;15.30;99.90;;;;;;4966074;28;20030;-75
2023/10/19 10:53:47;;;;;;;11.35;8.65;;;15.30;99.90;;;;;;4955714;28;20066;-75
2023/10/19 10:56:13;;;;;;;13.93;9.57;;;15.30;99.90;;;;;;4968409;28;20196;-74
2023/10/19 10:58:38;;;;;;;18.38;9.60;;;15.40;99.90;;;;;;4968898;28;20102;-74
2023/10/19 11:01:05;;;;;;;14.98;10.10;;;15.30;99.90;;;;;;4969316;28;20525;-74
2023/10/19 11:03:31;;;;;;;15.52;8.98;;;15.40;99.90;;;;;;4965925;28;20182;-74
2023/10/19 11:06:23;;;;;;;11.93;8.23;;;15.30;99.90;;;;;;4971992;28;20106;-74
2023/10/19 11:08:49;;;;;;;15.52;9.35;;;15.30;99.90;;;;;;4967008;28;20165;-73
2023/10/19 11:11:15;;;;;;;20.20;10.70;;;15.40;99.90;;;;;;4971045;28;20068;-74
2023/10/19 11:13:41;;;;;;;17.60;9.95;;;15.30;99.90;;;;;;4953353;28;20033;-76
2023/10/19 11:16:07;;;;;;;17.85;10.00;;;15.30;99.90;;;;;;4974454;28;20035;-75
2023/10/19 11:18:37;;;;;;;19.30;10.63;;;15.30;99.90;;;;;;4956563;28;20386;-74
2023/10/19 11:21:14;;;;;;;15.43;9.25;;;15.30;99.90;;;;;;4971716;28;20316;-74
2023/10/19 11:23:47;;;;;;;12.65;9.07;;;15.20;99.90;;;;;;4972584;28;20490;-74
2023/10/19 11:26:16;;;;;;;13.77;8.95;;;15.20;99.90;;;;;;4971486;28;20114;-74
2023/10/19 11:28:51;;;;;;;16.17;10.40;;;15.20;99.90;;;;;;4973016;28;20478;-75
2023/10/19 11:31:22;;;;;;;14.25;8.95;;;15.20;99.90;;;;;;4955298;28;20030;-75
2023/10/19 11:33:48;;;;;;;14.27;9.65;;;15.20;99.90;;;;;;4968805;28;20027;-75
2023/10/19 11:36:15;;;;;;;17.73;9.77;;;15.20;99.90;;;;;;4975342;28;20046;-75
2023/10/19 11:38:48;;;;;;;17.05;10.25;;;15.20;99.90;;;;;;4974785;28;20038;-74
2023/10/19 11:41:15;;;;;;;18.27;10.50;;;15.20;99.90;;;;;;4970178;28;20042;-75
2023/10/19 11:43:45;;;;;;;18.23;9.45;;;15.30;99.90;;;;;;4969566;28;20550;-74
2023/10/19 11:46:14;;;;;;;14.57;9.60;;;15.20;99.90;;;;;;4971500;28;20019;-74
2023/10/19 11:48:42;;;;;;;16.08;10.77;;;15.20;99.90;;;;;;4952669;28;20066;-76
2023/10/19 11:51:10;;;;;;;15.00;10.13;;;15.20;99.90;;;;;;4967940;28;20038;-76
2023/10/19 11:53:37;;;;;;;17.13;10.88;;;15.20;99.90;;;;;;4974301;28;20066;-75
2023/10/19 11:56:05;;;;;;;17.17;8.85;;;15.20;99.90;;;;;;4955716;28;20038;-74
2023/10/19 11:58:35;;;;;;;15.18;10.40;;;15.20;99.90;;;;;;4956268;28;20031;-74
2023/10/19 12:01:13;;;;;;;16.88;10.23;;;15.20;99.90;;;;;;4971673;28;20058;-75
2023/10/19 12:03:40;;;;;;;18.73;10.07;;;15.20;99.90;;;;;;4955402;28;20166;-75
2023/10/19 12:06:13;;;;;;;13.73;8.68;;;15.20;99.90;;;;;;4968401;28;20023;-75
2023/10/19 12:08:40;;;;;;;8.68;6.70;;;15.30;99.90;;;;;;4966474;28;20025;-75
2023/10/19 12:11:15;;;;;;;11.40;5.97;;;15.30;99.90;;;;;;4968131;28;20156;-74
2023/10/19 12:13:43;;;;;;;8.70;4.70;;;15.30;99.90;;;;;;4951172;28;20130;-74
2023/10/19 12:16:12;;;;;;;7.72;4.72;;;15.40;99.90;;;;;;4957243;28;20035;-76
2023/10/19 12:18:42;;;;;;;10.85;5.45;;;15.30;99.90;;;;;;4972136;28;20458;-75
2023/10/19 12:21:11;;;;;;;10.07;5.30;;;15.40;99.90;;;;;;4966024;28;20118;-74
2023/10/19 12:23:43;;;;;;;8.60;5.70;;;15.30;99.90;;;;;;4960480;28;20027;-74
2023/10/19 12:26:12;;;;;;;9.93;4.88;;;15.40;99.90;;;;;;4954598;28;20114;-74
2023/10/19 12:28:38;;;;;;;8.68;4.82;;;15.40;99.90;;;;;;4967080;28;20027;-75
2023/10/19 12:31:13;;;;;;;7.70;4.30;;;15.40;99.90;;;;;;4967174;28;20077;-75
2023/10/19 12:33:41;;;;;;;8.48;5.07;;;15.40;99.90;;;;;;4965301;28;20027;-74
2023/10/19 12:38:52;;;;;;;9.85;4.75;;;15.50;99.90;;;;;;4965385;28;20042;-74
2023/10/19 12:41:21;;;;;;;9.23;4.93;;;15.50;99.90;;;;;;4968898;28;20027;-73
2023/10/19 12:43:47;;;;;;;8.15;4.22;;;15.50;99.90;;;;;;4966370;28;20102;-73
2023/10/19 12:46:15;;;;;;;8.57;5.35;;;15.50;99.90;;;;;;4952711;28;20592;-73
2023/10/19 12:48:42;;;;;;;8.20;4.50;;;15.60;99.90;;;;;;4972241;28;20632;-74
2023/10/19 12:51:08;;;;;;;9.45;5.55;;;15.60;99.90;;;;;;4967931;28;20030;-71
2023/10/19 12:53:34;;;;;;;11.82;5.50;;;15.60;99.90;;;;;;4951417;28;20097;-74
2023/10/19 12:56:00;;;;;;;9.63;4.72;;;15.70;99.90;;;;;;4966773;28;20106;-73
2023/10/19 12:58:27;;;;;;;9.82;4.85;;;15.70;99.90;;;;;;4951544;28;20764;-74
2023/10/19 13:00:55;;;;;;;8.90;4.28;;;15.80;99.90;;;;;;4964484;28;20030;-74
2023/10/19 13:03:21;;;;;;;8.70;4.55;;;15.80;99.90;;;;;;4967466;28;20027;-74
2023/10/19 13:05:49;;;;;;;4.68;3.03;;;15.90;99.90;;;;;;4970434;28;20131;-73